sensor_id;sensor_type;location;lat;lon;timestamp;temperature;humidity
64670;DHT22;51080;51.690;5.174;2022-09-16T00:04:39;12.60;80.60
64670;DHT22;51080;51.690;5.174;2022-09-16T00:10:23;12.60;80.50
64670;DHT22;51080;51.690;5.174;2022-09-16T00:16:12;12.50;80.50
64670;DHT22;51080;51.690;5.174;2022-09-16T00:21:58;12.50;80.30
64670;DHT22;51080;51.690;5.174;2022-09-16T00:27:42;12.40;80.40
64670;DHT22;51080;51.690;5.174;2022-09-16T00:33:26;12.20;82.10
64670;DHT22;51080;51.690;5.174;2022-09-16T00:39:10;12.10;81.40
64670;DHT22;51080;51.690;5.174;2022-09-16T00:44:59;12.00;81.80
64670;DHT22;51080;51.690;5.174;2022-09-16T00:50:46;11.80;82.00
64670;DHT22;51080;51.690;5.174;2022-09-16T00:56:36;11.80;81.50
64670;DHT22;51080;51.690;5.174;2022-09-16T01:02:22;11.70;81.30
64670;DHT22;51080;51.690;5.174;2022-09-16T01:08:06;11.70;81.00
64670;DHT22;51080;51.690;5.174;2022-09-16T01:13:50;11.60;81.40
64670;DHT22;51080;51.690;5.174;2022-09-16T01:32:28;11.60;81.20
64670;DHT22;51080;51.690;5.174;2022-09-16T01:38:43;11.60;81.00
64670;DHT22;51080;51.690;5.174;2022-09-16T01:45:07;11.50;81.20
64670;DHT22;51080;51.690;5.174;2022-09-16T01:51:03;11.60;82.90
64670;DHT22;51080;51.690;5.174;2022-09-16T01:57:04;11.60;83.30
64670;DHT22;51080;51.690;5.174;2022-09-16T02:02:57;11.60;82.50
64670;DHT22;51080;51.690;5.174;2022-09-16T02:09:03;11.60;82.90
64670;DHT22;51080;51.690;5.174;2022-09-16T02:14:49;11.60;82.30
64670;DHT22;51080;51.690;5.174;2022-09-16T02:20:38;11.60;82.40
64670;DHT22;51080;51.690;5.174;2022-09-16T02:26:27;11.60;82.40
64670;DHT22;51080;51.690;5.174;2022-09-16T02:32:12;11.60;82.50
64670;DHT22;51080;51.690;5.174;2022-09-16T02:38:01;11.60;82.50
64670;DHT22;51080;51.690;5.174;2022-09-16T02:43:47;11.70;83.30
64670;DHT22;51080;51.690;5.174;2022-09-16T02:49:52;11.60;85.50
64670;DHT22;51080;51.690;5.174;2022-09-16T02:55:56;11.60;85.40
64670;DHT22;51080;51.690;5.174;2022-09-16T03:01:45;11.70;85.30
64670;DHT22;51080;51.690;5.174;2022-09-16T03:07:29;11.70;85.40
64670;DHT22;51080;51.690;5.174;2022-09-16T03:13:21;11.70;85.80
64670;DHT22;51080;51.690;5.174;2022-09-16T03:19:35;11.70;85.20
64670;DHT22;51080;51.690;5.174;2022-09-16T03:37:54;11.80;84.20
64670;DHT22;51080;51.690;5.174;2022-09-16T03:43:40;11.90;84.00
64670;DHT22;51080;51.690;5.174;2022-09-16T03:49:22;11.90;84.10
64670;DHT22;51080;51.690;5.174;2022-09-16T03:55:07;11.90;83.90
64670;DHT22;51080;51.690;5.174;2022-09-16T04:00:51;11.90;84.60
64670;DHT22;51080;51.690;5.174;2022-09-16T04:06:35;11.90;84.10
64670;DHT22;51080;51.690;5.174;2022-09-16T04:12:18;11.90;84.80
64670;DHT22;51080;51.690;5.174;2022-09-16T04:18:02;11.90;86.30
64670;DHT22;51080;51.690;5.174;2022-09-16T04:23:45;11.80;86.20
64670;DHT22;51080;51.690;5.174;2022-09-16T04:29:29;11.70;85.70
64670;DHT22;51080;51.690;5.174;2022-09-16T04:35:22;11.70;85.50
64670;DHT22;51080;51.690;5.174;2022-09-16T04:41:12;11.70;85.00
64670;DHT22;51080;51.690;5.174;2022-09-16T04:46:56;11.70;84.30
64670;DHT22;51080;51.690;5.174;2022-09-16T04:52:38;11.60;84.30
64670;DHT22;51080;51.690;5.174;2022-09-16T04:58:22;11.60;84.30
64670;DHT22;51080;51.690;5.174;2022-09-16T05:04:06;11.60;84.60
64670;DHT22;51080;51.690;5.174;2022-09-16T05:09:50;11.60;85.60
64670;DHT22;51080;51.690;5.174;2022-09-16T05:15:34;11.60;85.60
64670;DHT22;51080;51.690;5.174;2022-09-16T05:21:21;11.50;85.30
64670;DHT22;51080;51.690;5.174;2022-09-16T05:27:05;11.80;88.20
64670;DHT22;51080;51.690;5.174;2022-09-16T05:32:52;12.00;86.40
64670;DHT22;51080;51.690;5.174;2022-09-16T05:38:36;12.00;85.90
64670;DHT22;51080;51.690;5.174;2022-09-16T05:44:20;11.90;86.40
64670;DHT22;51080;51.690;5.174;2022-09-16T05:50:03;12.00;86.10
64670;DHT22;51080;51.690;5.174;2022-09-16T06:01:46;11.90;86.20
64670;DHT22;51080;51.690;5.174;2022-09-16T06:07:29;11.80;86.60
64670;DHT22;51080;51.690;5.174;2022-09-16T06:13:13;11.80;87.10
64670;DHT22;51080;51.690;5.174;2022-09-16T06:18:58;11.90;87.10
64670;DHT22;51080;51.690;5.174;2022-09-16T06:24:42;11.80;87.40
64670;DHT22;51080;51.690;5.174;2022-09-16T06:30:27;11.80;87.40
64670;DHT22;51080;51.690;5.174;2022-09-16T06:36:13;11.70;87.40
64670;DHT22;51080;51.690;5.174;2022-09-16T06:41:57;11.70;87.60
64670;DHT22;51080;51.690;5.174;2022-09-16T06:47:41;11.70;88.40
64670;DHT22;51080;51.690;5.174;2022-09-16T06:53:24;11.70;88.20
64670;DHT22;51080;51.690;5.174;2022-09-16T06:59:09;11.80;88.80
64670;DHT22;51080;51.690;5.174;2022-09-16T07:04:52;11.80;87.90
64670;DHT22;51080;51.690;5.174;2022-09-16T07:10:36;12.00;88.40
64670;DHT22;51080;51.690;5.174;2022-09-16T07:16:23;12.20;87.10
64670;DHT22;51080;51.690;5.174;2022-09-16T07:22:07;12.30;89.70
64670;DHT22;51080;51.690;5.174;2022-09-16T07:27:53;12.10;93.90
64670;DHT22;51080;51.690;5.174;2022-09-16T07:33:38;11.90;94.10
64670;DHT22;51080;51.690;5.174;2022-09-16T07:39:22;11.90;93.60
64670;DHT22;51080;51.690;5.174;2022-09-16T07:45:07;11.80;93.40
64670;DHT22;51080;51.690;5.174;2022-09-16T07:56:43;11.90;93.40
64670;DHT22;51080;51.690;5.174;2022-09-16T08:02:28;12.00;93.10
64670;DHT22;51080;51.690;5.174;2022-09-16T08:08:12;12.10;93.60
64670;DHT22;51080;51.690;5.174;2022-09-16T08:13:58;12.20;92.60
64670;DHT22;51080;51.690;5.174;2022-09-16T08:19:42;12.30;91.80
64670;DHT22;51080;51.690;5.174;2022-09-16T08:25:26;12.50;91.00
64670;DHT22;51080;51.690;5.174;2022-09-16T08:31:10;12.90;89.50
64670;DHT22;51080;51.690;5.174;2022-09-16T08:36:53;13.10;85.90
64670;DHT22;51080;51.690;5.174;2022-09-16T08:42:54;13.00;84.30
64670;DHT22;51080;51.690;5.174;2022-09-16T08:49:31;13.20;85.50
64670;DHT22;51080;51.690;5.174;2022-09-16T08:55:23;13.30;85.30
64670;DHT22;51080;51.690;5.174;2022-09-16T09:01:19;13.40;84.30
64670;DHT22;51080;51.690;5.174;2022-09-16T09:07:22;13.60;83.60
64670;DHT22;51080;51.690;5.174;2022-09-16T09:13:20;13.80;81.00
64670;DHT22;51080;51.690;5.174;2022-09-16T09:19:22;14.20;80.20
64670;DHT22;51080;51.690;5.174;2022-09-16T09:25:55;14.50;78.90
64670;DHT22;51080;51.690;5.174;2022-09-16T09:31:56;14.80;79.40
64670;DHT22;51080;51.690;5.174;2022-09-16T09:38:11;15.00;78.00
64670;DHT22;51080;51.690;5.174;2022-09-16T09:43:56;14.40;84.80
64670;DHT22;51080;51.690;5.174;2022-09-16T09:49:50;13.50;91.80
64670;DHT22;51080;51.690;5.174;2022-09-16T09:55:38;13.20;92.80
64670;DHT22;51080;51.690;5.174;2022-09-16T10:01:21;13.30;92.70
64670;DHT22;51080;51.690;5.174;2022-09-16T10:07:36;13.40;93.30
64670;DHT22;51080;51.690;5.174;2022-09-16T10:13:23;14.70;94.40
64670;DHT22;51080;51.690;5.174;2022-09-16T10:19:22;15.90;86.50
64670;DHT22;51080;51.690;5.174;2022-09-16T10:25:22;17.20;83.70
64670;DHT22;51080;51.690;5.174;2022-09-16T10:31:09;17.60;76.10
64670;DHT22;51080;51.690;5.174;2022-09-16T10:43:03;18.50;71.50
64670;DHT22;51080;51.690;5.174;2022-09-16T10:48:49;18.20;72.40
64670;DHT22;51080;51.690;5.174;2022-09-16T10:54:33;17.30;72.60
64670;DHT22;51080;51.690;5.174;2022-09-16T11:00:23;16.60;71.80
64670;DHT22;51080;51.690;5.174;2022-09-16T11:18:44;19.00;65.40
64670;DHT22;51080;51.690;5.174;2022-09-16T11:30:29;20.80;61.20
64670;DHT22;51080;51.690;5.174;2022-09-16T11:42:34;19.20;61.20
64670;DHT22;51080;51.690;5.174;2022-09-16T11:54:46;19.10;60.80
64670;DHT22;51080;51.690;5.174;2022-09-16T12:00:33;18.90;62.90
64670;DHT22;51080;51.690;5.174;2022-09-16T12:06:22;18.90;64.30
64670;DHT22;51080;51.690;5.174;2022-09-16T12:12:22;19.20;64.10
64670;DHT22;51080;51.690;5.174;2022-09-16T12:18:20;18.70;65.90
64670;DHT22;51080;51.690;5.174;2022-09-16T12:24:13;17.20;79.80
64670;DHT22;51080;51.690;5.174;2022-09-16T12:30:19;15.90;76.70
64670;DHT22;51080;51.690;5.174;2022-09-16T12:36:08;15.20;75.70
64670;DHT22;51080;51.690;5.174;2022-09-16T12:55:39;14.20;77.30
64670;DHT22;51080;51.690;5.174;2022-09-16T13:01:29;14.10;78.00
64670;DHT22;51080;51.690;5.174;2022-09-16T13:07:23;14.00;78.10
64670;DHT22;51080;51.690;5.174;2022-09-16T13:13:21;14.00;78.40
64670;DHT22;51080;51.690;5.174;2022-09-16T13:31:19;14.00;79.60
64670;DHT22;51080;51.690;5.174;2022-09-16T13:37:14;14.00;78.70
64670;DHT22;51080;51.690;5.174;2022-09-16T13:43:12;13.90;79.40
64670;DHT22;51080;51.690;5.174;2022-09-16T13:54:52;13.80;81.00
64670;DHT22;51080;51.690;5.174;2022-09-16T14:00:43;13.80;81.20
64670;DHT22;51080;51.690;5.174;2022-09-16T14:07:10;14.00;81.40
64670;DHT22;51080;51.690;5.174;2022-09-16T14:13:11;14.40;82.50
64670;DHT22;51080;51.690;5.174;2022-09-16T14:19:03;15.00;79.30
64670;DHT22;51080;51.690;5.174;2022-09-16T14:25:28;15.00;74.50
64670;DHT22;51080;51.690;5.174;2022-09-16T14:31:18;15.00;74.50
64670;DHT22;51080;51.690;5.174;2022-09-16T14:37:04;15.10;74.10
64670;DHT22;51080;51.690;5.174;2022-09-16T14:42:52;15.40;74.20
64670;DHT22;51080;51.690;5.174;2022-09-16T14:48:40;15.50;70.50
64670;DHT22;51080;51.690;5.174;2022-09-16T14:54:25;15.70;65.50
64670;DHT22;51080;51.690;5.174;2022-09-16T15:00:13;15.70;63.60
64670;DHT22;51080;51.690;5.174;2022-09-16T15:06:00;16.20;65.60
64670;DHT22;51080;51.690;5.174;2022-09-16T15:11:54;16.90;64.10
64670;DHT22;51080;51.690;5.174;2022-09-16T15:17:39;17.80;62.20
64670;DHT22;51080;51.690;5.174;2022-09-16T15:23:24;18.70;59.80
64670;DHT22;51080;51.690;5.174;2022-09-16T15:29:27;18.90;57.30
64670;DHT22;51080;51.690;5.174;2022-09-16T15:35:23;18.40;57.10
64670;DHT22;51080;51.690;5.174;2022-09-16T15:41:11;16.90;59.20
64670;DHT22;51080;51.690;5.174;2022-09-16T15:46:56;16.10;62.00
64670;DHT22;51080;51.690;5.174;2022-09-16T15:58:44;15.00;67.10
64670;DHT22;51080;51.690;5.174;2022-09-16T16:05:16;14.90;68.70
64670;DHT22;51080;51.690;5.174;2022-09-16T16:11:30;14.90;66.00
64670;DHT22;51080;51.690;5.174;2022-09-16T16:17:17;14.60;65.30
64670;DHT22;51080;51.690;5.174;2022-09-16T16:23:02;14.40;67.80
64670;DHT22;51080;51.690;5.174;2022-09-16T16:28:46;14.40;67.80
64670;DHT22;51080;51.690;5.174;2022-09-16T16:34:34;14.50;68.00
64670;DHT22;51080;51.690;5.174;2022-09-16T16:40:19;14.20;67.00
64670;DHT22;51080;51.690;5.174;2022-09-16T16:46:03;13.90;67.90
64670;DHT22;51080;51.690;5.174;2022-09-16T16:51:53;13.60;68.70
64670;DHT22;51080;51.690;5.174;2022-09-16T16:57:37;13.60;69.90
64670;DHT22;51080;51.690;5.174;2022-09-16T17:03:21;13.60;69.50
64670;DHT22;51080;51.690;5.174;2022-09-16T17:09:06;13.50;69.80
64670;DHT22;51080;51.690;5.174;2022-09-16T17:15:21;13.30;70.80
64670;DHT22;51080;51.690;5.174;2022-09-16T17:21:07;13.20;71.90
64670;DHT22;51080;51.690;5.174;2022-09-16T17:26:53;13.10;72.50
64670;DHT22;51080;51.690;5.174;2022-09-16T17:32:37;12.90;72.40
64670;DHT22;51080;51.690;5.174;2022-09-16T17:38:22;12.80;73.20
64670;DHT22;51080;51.690;5.174;2022-09-16T17:44:07;12.60;73.60
64670;DHT22;51080;51.690;5.174;2022-09-16T17:49:51;12.50;73.90
64670;DHT22;51080;51.690;5.174;2022-09-16T17:55:34;12.40;74.50
64670;DHT22;51080;51.690;5.174;2022-09-16T18:01:20;12.30;74.40
64670;DHT22;51080;51.690;5.174;2022-09-16T18:07:04;12.20;75.00
64670;DHT22;51080;51.690;5.174;2022-09-16T18:12:49;12.20;75.50
64670;DHT22;51080;51.690;5.174;2022-09-16T18:18:36;12.10;77.70
64670;DHT22;51080;51.690;5.174;2022-09-16T18:24:21;12.00;77.80
64670;DHT22;51080;51.690;5.174;2022-09-16T18:30:05;11.90;78.00
64670;DHT22;51080;51.690;5.174;2022-09-16T18:35:50;11.90;78.10
64670;DHT22;51080;51.690;5.174;2022-09-16T18:41:40;11.80;77.50
64670;DHT22;51080;51.690;5.174;2022-09-16T18:47:24;11.90;76.20
64670;DHT22;51080;51.690;5.174;2022-09-16T18:53:07;11.90;79.30
64670;DHT22;51080;51.690;5.174;2022-09-16T18:58:52;11.80;79.30
64670;DHT22;51080;51.690;5.174;2022-09-16T19:04:39;11.70;78.80
64670;DHT22;51080;51.690;5.174;2022-09-16T19:10:23;11.70;78.70
64670;DHT22;51080;51.690;5.174;2022-09-16T19:16:07;11.70;78.50
64670;DHT22;51080;51.690;5.174;2022-09-16T19:21:52;11.60;78.40
64670;DHT22;51080;51.690;5.174;2022-09-16T19:27:35;11.50;78.70
64670;DHT22;51080;51.690;5.174;2022-09-16T19:33:19;11.40;78.50
64670;DHT22;51080;51.690;5.174;2022-09-16T19:39:04;11.30;78.90
64670;DHT22;51080;51.690;5.174;2022-09-16T19:44:49;11.30;79.10
64670;DHT22;51080;51.690;5.174;2022-09-16T19:50:33;11.30;79.30
64670;DHT22;51080;51.690;5.174;2022-09-16T19:56:21;11.30;79.20
64670;DHT22;51080;51.690;5.174;2022-09-16T20:02:08;11.30;79.70
64670;DHT22;51080;51.690;5.174;2022-09-16T20:08:23;11.30;80.00
64670;DHT22;51080;51.690;5.174;2022-09-16T20:14:17;11.30;80.30
64670;DHT22;51080;51.690;5.174;2022-09-16T20:20:06;11.30;80.00
64670;DHT22;51080;51.690;5.174;2022-09-16T20:25:55;11.30;79.60
64670;DHT22;51080;51.690;5.174;2022-09-16T20:31:40;11.40;80.40
64670;DHT22;51080;51.690;5.174;2022-09-16T20:37:25;11.30;82.20
64670;DHT22;51080;51.690;5.174;2022-09-16T20:43:11;11.20;84.80
64670;DHT22;51080;51.690;5.174;2022-09-16T20:48:59;11.20;83.60
64670;DHT22;51080;51.690;5.174;2022-09-16T20:54:45;11.10;82.80
64670;DHT22;51080;51.690;5.174;2022-09-16T21:00:29;11.10;83.40
64670;DHT22;51080;51.690;5.174;2022-09-16T21:06:14;11.00;84.10
64670;DHT22;51080;51.690;5.174;2022-09-16T21:12:00;10.90;83.80
64670;DHT22;51080;51.690;5.174;2022-09-16T21:17:47;11.00;83.40
64670;DHT22;51080;51.690;5.174;2022-09-16T21:23:35;11.00;84.20
64670;DHT22;51080;51.690;5.174;2022-09-16T21:29:21;11.00;85.30
64670;DHT22;51080;51.690;5.174;2022-09-16T21:35:06;10.90;86.10
64670;DHT22;51080;51.690;5.174;2022-09-16T21:40:57;10.90;85.20
64670;DHT22;51080;51.690;5.174;2022-09-16T21:46:44;11.00;84.60
64670;DHT22;51080;51.690;5.174;2022-09-16T21:52:31;11.10;84.40
64670;DHT22;51080;51.690;5.174;2022-09-16T21:58:18;11.20;85.10
64670;DHT22;51080;51.690;5.174;2022-09-16T22:04:11;11.20;85.70
64670;DHT22;51080;51.690;5.174;2022-09-16T22:09:58;11.20;85.20
64670;DHT22;51080;51.690;5.174;2022-09-16T22:15:50;11.20;85.00
64670;DHT22;51080;51.690;5.174;2022-09-16T22:21:40;11.20;84.40
64670;DHT22;51080;51.690;5.174;2022-09-16T22:27:28;11.20;85.00
64670;DHT22;51080;51.690;5.174;2022-09-16T22:33:16;11.20;85.60
64670;DHT22;51080;51.690;5.174;2022-09-16T22:39:09;11.30;86.10
64670;DHT22;51080;51.690;5.174;2022-09-16T22:44:57;11.30;86.10
64670;DHT22;51080;51.690;5.174;2022-09-16T22:50:55;11.30;86.30
64670;DHT22;51080;51.690;5.174;2022-09-16T22:56:43;11.30;86.70
64670;DHT22;51080;51.690;5.174;2022-09-16T23:02:30;11.30;86.40
64670;DHT22;51080;51.690;5.174;2022-09-16T23:08:14;11.30;86.30
64670;DHT22;51080;51.690;5.174;2022-09-16T23:14:01;11.20;85.90
64670;DHT22;51080;51.690;5.174;2022-09-16T23:19:50;11.20;85.70
64670;DHT22;51080;51.690;5.174;2022-09-16T23:25:38;11.20;85.60
64670;DHT22;51080;51.690;5.174;2022-09-16T23:31:28;11.20;85.10
64670;DHT22;51080;51.690;5.174;2022-09-16T23:37:15;11.10;85.20
64670;DHT22;51080;51.690;5.174;2022-09-16T23:43:03;11.10;84.90
64670;DHT22;51080;51.690;5.174;2022-09-16T23:48:49;11.00;84.90
64670;DHT22;51080;51.690;5.174;2022-09-16T23:54:36;11.00;85.30
